Time;durP1;ratioP1;P1;durP2;ratioP2;P2;SDS_P1;SDS_P2;PMS_P1;PMS_P2;Temp;Humidity;BMP_temperature;BMP_pressure;BME280_temperature;BME280_humidity;BME280_pressure;Samples;Min_cycle;Max_cycle;Signal;HPM_P1;HPM_P2
2023/12/26 00:01:13;;;;;;;0.80;0.30;;;10.20;99.90;;;;;;5054797;28;20860;-46
2023/12/26 00:03:41;;;;;;;1.20;0.50;;;10.10;99.90;;;;;;5036527;28;20845;-48
2023/12/26 00:06:09;;;;;;;1.50;0.40;;;10.20;99.90;;;;;;5036385;28;20461;-49
2023/12/26 00:08:39;;;;;;;1.10;0.40;;;10.10;99.90;;;;;;5047878;28;20490;-50
2023/12/26 00:11:07;;;;;;;0.90;0.30;;;10.20;99.90;;;;;;5050122;28;20464;-48
2023/12/26 00:13:35;;;;;;;0.80;0.30;;;10.20;99.90;;;;;;5046537;28;20459;-48
2023/12/26 00:16:03;;;;;;;1.00;0.30;;;10.10;99.90;;;;;;5055123;28;20497;-49
2023/12/26 00:18:31;;;;;;;2.10;0.30;;;10.10;99.90;;;;;;5046412;28;20483;-48
2023/12/26 00:20:59;;;;;;;0.90;0.40;;;10.20;99.90;;;;;;5054489;28;20468;-45
2023/12/26 00:23:28;;;;;;;1.00;0.40;;;10.20;99.90;;;;;;5038962;28;20448;-48
2023/12/26 00:25:58;;;;;;;1.10;0.30;;;10.10;99.90;;;;;;5054384;28;20483;-50
2023/12/26 00:28:26;;;;;;;0.90;0.40;;;10.20;99.90;;;;;;5038124;28;20458;-49
2023/12/26 00:30:54;;;;;;;0.90;0.40;;;10.10;99.90;;;;;;5049937;28;21063;-49
2023/12/26 00:33:23;;;;;;;0.90;0.30;;;10.10;99.90;;;;;;5047415;28;20442;-49
2023/12/26 00:35:51;;;;;;;0.90;0.43;;;10.10;99.90;;;;;;5049831;28;20979;-49
2023/12/26 00:38:21;;;;;;;1.10;0.40;;;10.10;99.90;;;;;;5047469;28;20779;-48
2023/12/26 00:40:50;;;;;;;1.03;0.30;;;10.20;99.90;;;;;;5053886;28;20471;-46
2023/12/26 00:43:19;;;;;;;1.10;0.40;;;10.10;99.90;;;;;;5047290;28;20891;-48
2023/12/26 00:45:47;;;;;;;1.10;0.60;;;10.10;99.90;;;;;;5050193;28;20444;-48
2023/12/26 00:48:15;;;;;;;1.10;0.40;;;10.10;99.90;;;;;;5050870;28;20432;-47
2023/12/26 00:50:44;;;;;;;1.47;0.40;;;10.20;99.90;;;;;;5045990;28;20455;-49
2023/12/26 00:53:12;;;;;;;1.03;0.43;;;10.20;99.90;;;;;;5046832;28;20966;-49
2023/12/26 00:55:40;;;;;;;1.10;0.40;;;10.20;99.90;;;;;;5049440;28;20852;-47
2023/12/26 00:58:08;;;;;;;1.10;0.40;;;10.10;99.90;;;;;;5043980;28;20819;-46
2023/12/26 01:00:38;;;;;;;1.10;0.40;;;10.20;99.90;;;;;;5051451;28;20484;-48
2023/12/26 01:03:09;;;;;;;0.90;0.30;;;10.20;99.90;;;;;;5052743;28;20500;-47
2023/12/26 01:05:37;;;;;;;1.00;0.40;;;10.10;99.90;;;;;;5048365;28;20484;-48
2023/12/26 01:08:08;;;;;;;1.30;0.60;;;10.10;99.90;;;;;;5043946;28;21024;-49
2023/12/26 01:10:37;;;;;;;1.00;0.40;;;10.10;99.90;;;;;;5048558;28;21015;-48
2023/12/26 01:13:06;;;;;;;1.33;0.40;;;10.20;99.90;;;;;;5045915;28;20495;-48
2023/12/26 01:15:34;;;;;;;1.30;0.50;;;10.10;99.90;;;;;;5048343;28;20442;-47
2023/12/26 01:18:04;;;;;;;1.03;0.33;;;10.10;99.90;;;;;;5048479;28;20441;-45
2023/12/26 01:20:33;;;;;;;0.90;0.40;;;10.20;99.90;;;;;;5055811;28;20459;-46
2023/12/26 01:23:02;;;;;;;1.10;0.40;;;10.10;99.90;;;;;;5047922;28;20876;-50
2023/12/26 01:25:31;;;;;;;1.13;0.40;;;10.20;99.90;;;;;;5051769;28;20926;-48
2023/12/26 01:27:59;;;;;;;1.20;0.53;;;10.10;99.90;;;;;;5039706;28;20461;-52
2023/12/26 01:30:27;;;;;;;1.40;0.40;;;10.10;99.90;;;;;;5067177;28;20510;-50
2023/12/26 01:32:55;;;;;;;1.30;0.50;;;10.10;99.90;;;;;;5071984;28;20458;-49
2023/12/26 01:35:25;;;;;;;2.07;0.80;;;10.10;99.90;;;;;;5050371;28;20443;-47
2023/12/26 01:37:54;;;;;;;0.90;0.30;;;10.20;99.90;;;;;;5040790;28;20470;-49
2023/12/26 01:40:22;;;;;;;1.00;0.50;;;10.10;99.90;;;;;;5054029;28;20464;-48
2023/12/26 01:42:50;;;;;;;1.00;0.33;;;10.20;99.90;;;;;;5043260;28;21076;-48
2023/12/26 01:45:18;;;;;;;0.93;0.40;;;10.10;99.90;;;;;;5048882;28;20602;-50
2023/12/26 01:47:51;;;;;;;1.03;0.40;;;10.20;99.90;;;;;;5044679;28;20465;-49
2023/12/26 01:50:21;;;;;;;2.63;0.63;;;10.10;99.90;;;;;;5052170;28;20534;-47
2023/12/26 01:52:51;;;;;;;1.17;0.40;;;10.10;99.90;;;;;;5041111;28;20577;-47
2023/12/26 01:55:20;;;;;;;1.20;0.40;;;10.10;99.90;;;;;;5041410;28;20430;-49
2023/12/26 01:57:49;;;;;;;1.17;0.40;;;10.10;99.90;;;;;;5036190;28;20984;-47
2023/12/26 02:00:18;;;;;;;1.83;0.50;;;10.10;99.90;;;;;;5051705;28;20450;-46
2023/12/26 02:02:47;;;;;;;1.00;0.43;;;10.10;99.90;;;;;;5043867;28;20455;-45
2023/12/26 02:05:16;;;;;;;0.90;0.40;;;10.10;99.90;;;;;;5045737;28;20429;-50
2023/12/26 02:07:45;;;;;;;1.37;0.40;;;10.10;99.90;;;;;;5040111;28;20478;-47
2023/12/26 02:10:14;;;;;;;1.00;0.37;;;10.10;99.90;;;;;;5055588;28;20850;-46
2023/12/26 02:12:43;;;;;;;1.00;0.40;;;10.10;99.90;;;;;;5049236;28;21010;-46
2023/12/26 02:15:13;;;;;;;1.10;0.40;;;10.10;99.90;;;;;;5055340;28;20435;-47
2023/12/26 02:17:42;;;;;;;1.00;0.40;;;10.20;99.90;;;;;;5055854;28;20544;-48
2023/12/26 02:20:11;;;;;;;2.00;0.30;;;10.10;99.90;;;;;;5055986;28;20451;-47
2023/12/26 02:22:39;;;;;;;1.00;0.37;;;10.10;99.90;;;;;;5052126;28;20482;-47
2023/12/26 02:25:09;;;;;;;1.10;0.40;;;10.10;99.90;;;;;;5053495;28;21003;-48
2023/12/26 02:27:37;;;;;;;1.10;0.60;;;10.10;99.90;;;;;;5054934;28;20481;-48
2023/12/26 02:30:09;;;;;;;1.40;0.47;;;10.10;99.90;;;;;;5053020;28;20436;-48
2023/12/26 02:32:39;;;;;;;1.60;0.50;;;10.10;99.90;;;;;;5056893;28;20491;-48
2023/12/26 02:35:08;;;;;;;1.00;0.47;;;10.10;99.90;;;;;;5048545;28;20498;-48
2023/12/26 02:37:38;;;;;;;0.90;0.30;;;10.10;99.90;;;;;;5046825;28;20599;-47
2023/12/26 02:40:09;;;;;;;0.90;0.40;;;10.10;99.90;;;;;;5058324;28;20462;-47
2023/12/26 02:42:37;;;;;;;0.97;0.40;;;10.10;99.90;;;;;;5051668;28;20498;-47
2023/12/26 02:45:07;;;;;;;0.90;0.50;;;10.10;99.90;;;;;;5052667;28;20447;-47
2023/12/26 02:47:35;;;;;;;1.10;0.40;;;10.10;99.90;;;;;;5052404;28;20458;-48
2023/12/26 02:50:06;;;;;;;1.10;0.50;;;10.10;99.90;;;;;;5049959;28;20534;-46
2023/12/26 02:52:34;;;;;;;1.23;0.50;;;10.10;99.90;;;;;;5046693;28;20531;-48
2023/12/26 02:55:02;;;;;;;0.90;0.40;;;10.10;99.90;;;;;;5051981;28;20432;-49
2023/12/26 02:57:31;;;;;;;1.20;0.50;;;10.10;99.90;;;;;;5047542;28;20906;-49
2023/12/26 02:59:59;;;;;;;1.30;0.53;;;10.10;99.90;;;;;;5049678;28;20792;-49
2023/12/26 03:02:28;;;;;;;2.30;0.50;;;10.10;99.90;;;;;;5053835;28;20524;-47
2023/12/26 03:04:56;;;;;;;1.00;0.40;;;10.10;99.90;;;;;;5053064;28;20440;-48
2023/12/26 03:07:24;;;;;;;1.53;0.50;;;10.10;99.90;;;;;;5047222;28;20481;-48
2023/12/26 03:09:52;;;;;;;0.90;0.30;;;10.10;99.90;;;;;;5050876;28;20457;-48
2023/12/26 03:12:20;;;;;;;1.67;0.50;;;10.10;99.90;;;;;;5046400;28;20505;-48
2023/12/26 03:14:50;;;;;;;0.90;0.40;;;10.10;99.90;;;;;;5043722;28;20429;-46
2023/12/26 03:17:18;;;;;;;1.03;0.30;;;10.10;99.90;;;;;;5055792;28;20635;-47
2023/12/26 03:19:46;;;;;;;1.23;0.70;;;10.20;99.90;;;;;;5051428;28;20454;-48
2023/12/26 03:22:14;;;;;;;1.90;0.40;;;10.10;99.90;;;;;;5044911;28;20467;-47
2023/12/26 03:24:42;;;;;;;1.00;0.40;;;10.10;99.90;;;;;;5046645;28;20426;-49
2023/12/26 03:27:10;;;;;;;1.07;0.40;;;10.10;99.90;;;;;;5054359;28;20464;-48
2023/12/26 03:29:39;;;;;;;3.00;0.40;;;10.10;99.90;;;;;;5041449;28;20466;-48
2023/12/26 03:32:10;;;;;;;1.10;0.40;;;10.10;99.90;;;;;;5053736;28;20473;-48
2023/12/26 03:34:39;;;;;;;1.43;0.40;;;10.10;99.90;;;;;;5051519;28;20445;-47
2023/12/26 03:37:07;;;;;;;0.90;0.37;;;10.10;99.90;;;;;;5043477;28;20468;-48
2023/12/26 03:39:35;;;;;;;0.97;0.50;;;10.10;99.90;;;;;;5053285;28;20455;-49
2023/12/26 03:42:03;;;;;;;1.00;0.40;;;10.10;99.90;;;;;;5053329;28;20461;-48
2023/12/26 03:44:31;;;;;;;1.00;0.50;;;10.10;99.90;;;;;;5048228;28;20896;-47
2023/12/26 03:46:59;;;;;;;1.20;0.50;;;10.10;99.90;;;;;;5052055;28;20874;-47
2023/12/26 03:49:30;;;;;;;0.80;0.40;;;10.10;99.90;;;;;;5056970;28;20444;-47
2023/12/26 03:51:58;;;;;;;1.00;0.50;;;10.10;99.90;;;;;;5049817;28;20552;-49
2023/12/26 03:54:26;;;;;;;1.10;0.40;;;10.10;99.90;;;;;;5049047;28;20428;-46
2023/12/26 03:56:54;;;;;;;1.10;0.47;;;10.10;99.90;;;;;;5055756;28;20463;-50
2023/12/26 03:59:22;;;;;;;1.00;0.40;;;10.10;99.90;;;;;;5049840;28;20488;-46
2023/12/26 04:01:50;;;;;;;1.37;0.40;;;10.10;99.90;;;;;;5054518;28;20466;-47
2023/12/26 04:04:18;;;;;;;1.30;0.40;;;10.10;99.90;;;;;;5040981;28;20976;-48
2023/12/26 04:06:49;;;;;;;1.30;0.30;;;10.10;99.90;;;;;;5057617;28;20504;-48
2023/12/26 04:09:19;;;;;;;1.20;0.50;;;10.10;99.90;;;;;;5049148;28;20458;-46
2023/12/26 04:11:48;;;;;;;1.50;0.50;;;10.10;99.90;;;;;;5060138;28;20474;-48
2023/12/26 04:14:16;;;;;;;0.93;0.43;;;10.10;99.90;;;;;;5046852;28;20520;-48
2023/12/26 04:16:44;;;;;;;1.20;0.47;;;10.10;99.90;;;;;;5055327;28;21028;-49
2023/12/26 04:19:12;;;;;;;1.20;0.43;;;10.10;99.90;;;;;;5056621;28;20476;-48
2023/12/26 04:21:40;;;;;;;0.97;0.40;;;10.10;99.90;;;;;;5049567;28;20494;-48
2023/12/26 04:24:11;;;;;;;0.90;0.30;;;10.10;99.90;;;;;;5053181;28;20444;-48
2023/12/26 04:26:39;;;;;;;1.00;0.40;;;10.10;99.90;;;;;;5056349;28;20482;-49
2023/12/26 04:29:07;;;;;;;1.20;0.60;;;10.10;99.90;;;;;;5048035;28;20478;-49
2023/12/26 04:31:35;;;;;;;1.00;0.40;;;10.10;99.90;;;;;;5054934;28;21026;-47
2023/12/26 04:34:03;;;;;;;0.90;0.40;;;10.10;99.90;;;;;;5054454;28;20444;-46
2023/12/26 04:36:34;;;;;;;1.37;0.30;;;10.10;99.90;;;;;;5052518;28;20480;-48
2023/12/26 04:39:04;;;;;;;1.90;0.60;;;10.10;99.90;;;;;;5054410;28;20566;-48
2023/12/26 04:41:34;;;;;;;0.90;0.40;;;10.10;99.90;;;;;;5051736;28;20469;-50
2023/12/26 04:44:02;;;;;;;0.90;0.30;;;10.10;99.90;;;;;;5043583;28;20472;-47
2023/12/26 04:46:30;;;;;;;0.93;0.40;;;10.10;99.90;;;;;;5047476;28;20511;-47
2023/12/26 04:48:58;;;;;;;1.20;0.50;;;10.20;99.90;;;;;;5053568;28;20726;-48
2023/12/26 04:51:29;;;;;;;1.10;0.50;;;10.10;99.90;;;;;;5048904;28;20496;-47
2023/12/26 04:53:58;;;;;;;1.40;0.50;;;10.10;99.90;;;;;;5050412;28;20447;-49
2023/12/26 04:56:27;;;;;;;2.07;0.50;;;10.10;99.90;;;;;;5050881;28;20485;-49
2023/12/26 04:58:56;;;;;;;1.10;0.40;;;10.10;99.90;;;;;;5039220;28;20480;-47
2023/12/26 05:01:24;;;;;;;1.00;0.43;;;10.10;99.90;;;;;;5049544;28;20471;-50
2023/12/26 05:03:53;;;;;;;1.40;0.43;;;10.10;99.90;;;;;;5051617;28;20976;-49
2023/12/26 05:06:21;;;;;;;3.43;0.53;;;10.10;99.90;;;;;;5051085;28;20837;-47
2023/12/26 05:08:50;;;;;;;0.90;0.40;;;10.10;99.90;;;;;;5048796;28;20467;-50
2023/12/26 05:11:23;;;;;;;2.10;0.43;;;10.10;99.90;;;;;;5049949;28;20463;-49
2023/12/26 05:13:51;;;;;;;1.43;0.30;;;10.10;99.90;;;;;;5045628;28;20446;-48
2023/12/26 05:16:21;;;;;;;1.00;0.40;;;10.10;99.90;;;;;;5054351;28;20468;-48
2023/12/26 05:18:49;;;;;;;1.40;0.57;;;10.10;99.90;;;;;;5046122;28;20469;-47
2023/12/26 05:21:18;;;;;;;0.90;0.37;;;10.10;99.90;;;;;;5049677;28;20831;-47
2023/12/26 05:23:46;;;;;;;1.90;0.60;;;10.10;99.90;;;;;;5046874;28;21178;-46
2023/12/26 05:26:15;;;;;;;1.73;0.80;;;10.10;99.90;;;;;;5053353;28;20473;-49
2023/12/26 05:28:45;;;;;;;1.30;0.53;;;10.10;99.90;;;;;;5041643;28;20710;-49
2023/12/26 05:31:13;;;;;;;1.00;0.50;;;10.10;99.90;;;;;;5053388;28;20526;-48
2023/12/26 05:33:43;;;;;;;1.00;0.43;;;10.10;99.90;;;;;;5053262;28;20454;-47
2023/12/26 05:36:11;;;;;;;0.90;0.40;;;10.10;99.90;;;;;;5050081;28;20496;-48
2023/12/26 05:38:39;;;;;;;1.00;0.40;;;10.10;99.90;;;;;;5041500;28;20476;-47
2023/12/26 05:41:08;;;;;;;1.67;0.60;;;10.10;99.90;;;;;;5047252;28;21165;-47
2023/12/26 05:43:39;;;;;;;1.30;0.53;;;10.10;99.90;;;;;;5043946;28;20451;-49
2023/12/26 05:46:07;;;;;;;1.50;0.50;;;10.10;99.90;;;;;;5054015;28;20460;-49
2023/12/26 05:48:36;;;;;;;3.57;0.53;;;10.10;99.90;;;;;;5048690;28;20424;-47
2023/12/26 05:51:07;;;;;;;2.20;1.13;;;10.10;99.90;;;;;;5053217;28;20990;-49
2023/12/26 05:53:35;;;;;;;1.30;0.63;;;10.10;99.90;;;;;;5052249;28;20452;-46
2023/12/26 05:56:04;;;;;;;1.20;0.50;;;10.10;99.90;;;;;;5048390;28;20483;-49
2023/12/26 05:58:32;;;;;;;1.43;0.40;;;10.10;99.90;;;;;;5043278;28;20993;-47
2023/12/26 06:01:02;;;;;;;1.07;0.50;;;10.10;99.90;;;;;;5052649;28;20460;-46
2023/12/26 06:03:31;;;;;;;1.00;0.40;;;10.10;99.90;;;;;;5050215;28;20435;-48
2023/12/26 06:05:59;;;;;;;1.30;0.77;;;10.10;99.90;;;;;;5045521;28;20467;-47
2023/12/26 06:08:29;;;;;;;1.40;0.60;;;10.10;99.90;;;;;;5044887;28;20481;-47
2023/12/26 06:10:57;;;;;;;1.30;0.60;;;10.10;99.90;;;;;;5049724;28;20462;-47
2023/12/26 06:13:26;;;;;;;4.70;0.60;;;10.10;99.90;;;;;;5050074;28;20541;-45
2023/12/26 06:15:54;;;;;;;2.30;0.70;;;10.10;99.90;;;;;;5048516;28;20436;-49
2023/12/26 06:18:23;;;;;;;3.13;0.53;;;10.10;99.90;;;;;;5049947;28;20938;-48
2023/12/26 06:20:51;;;;;;;1.60;0.60;;;10.10;99.90;;;;;;5034816;28;20459;-46
2023/12/26 06:23:19;;;;;;;1.23;0.50;;;10.10;99.90;;;;;;5040547;28;20870;-47
2023/12/26 06:25:49;;;;;;;1.20;0.60;;;10.10;99.90;;;;;;5050886;28;20452;-50
2023/12/26 06:28:17;;;;;;;1.50;0.70;;;10.10;99.90;;;;;;5057014;28;20515;-48
2023/12/26 06:30:45;;;;;;;1.77;0.60;;;10.10;99.90;;;;;;5053563;28;20521;-48
2023/12/26 06:33:14;;;;;;;1.30;0.40;;;10.10;99.90;;;;;;5050855;28;20534;-48
2023/12/26 06:35:42;;;;;;;2.17;0.63;;;10.10;99.90;;;;;;5044961;28;20435;-49
2023/12/26 06:38:12;;;;;;;1.20;0.50;;;10.10;99.90;;;;;;5044199;28;20451;-48
2023/12/26 06:40:41;;;;;;;1.23;0.53;;;10.10;99.90;;;;;;5045069;28;20552;-47
2023/12/26 06:43:11;;;;;;;1.50;0.70;;;10.10;99.90;;;;;;5046364;28;20442;-49
2023/12/26 06:45:39;;;;;;;2.30;0.70;;;10.10;99.90;;;;;;5046252;28;20444;-47
2023/12/26 06:48:07;;;;;;;2.10;0.60;;;10.10;99.90;;;;;;5062533;28;20535;-48
2023/12/26 06:50:37;;;;;;;1.77;0.70;;;10.10;99.90;;;;;;5061250;28;20846;-47
2023/12/26 06:53:05;;;;;;;1.40;0.70;;;10.10;99.90;;;;;;5051557;28;20429;-46
2023/12/26 06:55:33;;;;;;;1.47;0.50;;;10.10;99.90;;;;;;5051597;28;20442;-46
2023/12/26 06:58:01;;;;;;;1.40;0.60;;;10.10;99.90;;;;;;5045536;28;20502;-47
2023/12/26 07:00:31;;;;;;;1.43;0.40;;;10.10;99.90;;;;;;5053212;28;20573;-48
2023/12/26 07:02:59;;;;;;;1.00;0.50;;;10.10;99.90;;;;;;5056033;28;20466;-51
2023/12/26 07:05:28;;;;;;;1.40;0.50;;;10.10;99.90;;;;;;5055925;28;20452;-48
2023/12/26 07:07:56;;;;;;;2.80;0.80;;;10.10;99.90;;;;;;5047946;28;20497;-48
2023/12/26 07:10:24;;;;;;;1.20;0.63;;;10.10;99.90;;;;;;5050760;28;20448;-51
2023/12/26 07:12:52;;;;;;;2.60;0.60;;;10.10;99.90;;;;;;5053538;28;20506;-46
2023/12/26 07:15:20;;;;;;;1.57;0.70;;;10.10;99.90;;;;;;5042235;28;20986;-48
2023/12/26 07:17:50;;;;;;;1.20;0.70;;;10.10;99.90;;;;;;5056759;28;20483;-47
2023/12/26 07:20:19;;;;;;;1.50;0.60;;;10.10;99.90;;;;;;5057015;28;20462;-48
2023/12/26 07:22:47;;;;;;;1.60;0.63;;;10.10;99.90;;;;;;5045587;28;20472;-45
2023/12/26 07:25:15;;;;;;;1.33;0.60;;;10.10;99.90;;;;;;5047298;28;20825;-47
2023/12/26 07:27:44;;;;;;;1.40;0.73;;;10.10;99.90;;;;;;5048336;28;21068;-49
2023/12/26 07:30:12;;;;;;;1.67;0.90;;;10.10;99.90;;;;;;5052918;28;20452;-47
2023/12/26 07:32:40;;;;;;;2.50;0.87;;;10.10;99.90;;;;;;5053651;28;21014;-46
2023/12/26 07:35:10;;;;;;;1.30;0.63;;;10.10;99.90;;;;;;5048698;28;20501;-46
2023/12/26 07:37:39;;;;;;;1.40;0.80;;;10.10;99.90;;;;;;5045216;28;20488;-46
2023/12/26 07:40:08;;;;;;;1.47;0.67;;;10.10;99.90;;;;;;5052376;28;20555;-46
2023/12/26 07:42:36;;;;;;;1.20;0.60;;;10.10;99.90;;;;;;5050888;28;20448;-47
2023/12/26 07:45:05;;;;;;;1.00;0.40;;;10.10;99.90;;;;;;5037694;28;20932;-50
2023/12/26 07:47:33;;;;;;;1.27;0.60;;;10.10;99.90;;;;;;5044451;28;20492;-47
2023/12/26 07:50:04;;;;;;;1.20;0.60;;;10.10;99.90;;;;;;5042990;28;20450;-49
2023/12/26 07:52:37;;;;;;;2.80;1.00;;;10.10;99.90;;;;;;5046308;28;21000;-48
2023/12/26 07:55:06;;;;;;;2.03;0.90;;;10.10;99.90;;;;;;5039515;28;20431;-48
2023/12/26 07:57:34;;;;;;;1.87;0.70;;;10.10;99.90;;;;;;5045422;28;20455;-47
2023/12/26 08:00:02;;;;;;;1.57;0.57;;;10.10;99.90;;;;;;5046663;28;20524;-49
2023/12/26 08:02:39;;;;;;;1.20;0.60;;;10.10;99.90;;;;;;5047789;28;20511;-47
2023/12/26 08:05:07;;;;;;;1.50;0.70;;;10.10;99.90;;;;;;5053207;28;20432;-46
2023/12/26 08:07:36;;;;;;;2.90;0.90;;;10.10;99.90;;;;;;5049678;28;20471;-48
2023/12/26 08:10:05;;;;;;;2.03;1.00;;;10.10;99.90;;;;;;5055978;28;20969;-47
2023/12/26 08:12:34;;;;;;;1.23;0.60;;;10.10;99.90;;;;;;5051857;28;20462;-46
2023/12/26 08:15:01;;;;;;;3.23;0.90;;;10.10;99.90;;;;;;5046451;28;20595;-47
2023/12/26 08:17:29;;;;;;;2.57;1.07;;;10.10;99.90;;;;;;5053315;28;20555;-48
2023/12/26 08:20:00;;;;;;;2.77;1.10;;;10.10;99.90;;;;;;5051558;28;20587;-49
2023/12/26 08:22:28;;;;;;;1.97;0.80;;;10.10;99.90;;;;;;5053128;28;20466;-49
2023/12/26 08:24:57;;;;;;;1.93;0.73;;;10.10;99.90;;;;;;5042523;28;20468;-45
2023/12/26 08:27:26;;;;;;;2.10;0.70;;;10.10;99.90;;;;;;5054817;28;20467;-48
2023/12/26 08:29:54;;;;;;;1.60;0.70;;;10.10;99.90;;;;;;5052661;28;21049;-48
2023/12/26 08:32:22;;;;;;;1.60;0.70;;;10.10;99.90;;;;;;5058327;28;20467;-48
2023/12/26 08:34:50;;;;;;;2.43;0.90;;;10.10;99.90;;;;;;5041802;28;20428;-48
2023/12/26 08:37:19;;;;;;;1.30;0.70;;;10.10;99.90;;;;;;5037468;28;21065;-47
2023/12/26 08:39:47;;;;;;;2.10;1.07;;;10.10;99.90;;;;;;5042110;28;20438;-48
2023/12/26 08:42:17;;;;;;;1.60;0.70;;;10.10;99.90;;;;;;5048951;28;20514;-48
2023/12/26 08:44:45;;;;;;;2.30;1.10;;;10.10;99.90;;;;;;5036864;28;20449;-48
2023/12/26 08:47:13;;;;;;;4.80;1.10;;;10.10;99.90;;;;;;5047969;28;20484;-46
2023/12/26 08:49:41;;;;;;;3.00;1.00;;;10.10;99.90;;;;;;5049510;28;20828;-49
2023/12/26 08:52:10;;;;;;;2.30;1.10;;;10.10;99.90;;;;;;5057213;28;20471;-47
2023/12/26 08:54:38;;;;;;;2.83;1.00;;;10.10;99.90;;;;;;5047442;28;20439;-47
2023/12/26 08:57:06;;;;;;;2.95;1.10;;;10.10;99.90;;;;;;5048551;28;20497;-48
2023/12/26 08:59:36;;;;;;;2.30;1.10;;;10.10;99.90;;;;;;5048345;28;20226;-47
2023/12/26 09:02:05;;;;;;;2.33;1.23;;;10.10;99.90;;;;;;5043861;28;20472;-46
2023/12/26 09:04:33;;;;;;;2.27;0.90;;;10.10;99.90;;;;;;5056199;28;20523;-46
2023/12/26 09:07:02;;;;;;;1.73;1.07;;;10.10;99.90;;;;;;5048957;28;20488;-47
2023/12/26 09:09:30;;;;;;;1.47;0.80;;;10.10;99.90;;;;;;5051452;28;20471;-46
2023/12/26 09:11:59;;;;;;;2.03;0.90;;;10.10;99.90;;;;;;5043505;28;21002;-46
2023/12/26 09:14:27;;;;;;;2.63;0.77;;;10.10;99.90;;;;;;5048255;28;20454;-46
2023/12/26 09:16:57;;;;;;;2.37;0.90;;;10.10;99.90;;;;;;5055339;28;20467;-46
2023/12/26 09:19:25;;;;;;;3.00;0.83;;;10.10;99.90;;;;;;5058773;28;20524;-49
2023/12/26 09:21:53;;;;;;;1.93;0.97;;;10.10;99.90;;;;;;5039632;28;20483;-48
2023/12/26 09:24:21;;;;;;;2.43;1.10;;;10.10;99.90;;;;;;5058741;28;20450;-48
2023/12/26 09:26:50;;;;;;;1.80;1.00;;;10.10;99.90;;;;;;5054645;28;20555;-46
2023/12/26 09:29:18;;;;;;;2.20;0.90;;;10.10;99.90;;;;;;5047614;28;20474;-46
2023/12/26 09:31:46;;;;;;;2.43;0.80;;;10.10;99.90;;;;;;5052337;28;20460;-47
2023/12/26 09:34:15;;;;;;;2.37;0.83;;;10.10;99.90;;;;;;5043074;28;20438;-47
2023/12/26 09:36:44;;;;;;;3.93;1.27;;;10.10;99.90;;;;;;5051119;28;20584;-47
2023/12/26 09:39:12;;;;;;;2.00;1.20;;;10.10;99.90;;;;;;5056117;28;20879;-48
2023/12/26 09:41:43;;;;;;;2.17;1.40;;;10.10;99.90;;;;;;5040242;28;20523;-49
2023/12/26 09:44:12;;;;;;;2.73;1.10;;;10.10;99.90;;;;;;5044316;28;20495;-46
2023/12/26 09:46:40;;;;;;;2.00;1.20;;;10.10;99.90;;;;;;5042520;28;20470;-48
2023/12/26 09:49:09;;;;;;;3.53;0.90;;;10.10;99.90;;;;;;5057085;28;20453;-47
2023/12/26 09:51:46;;;;;;;2.03;1.20;;;10.10;99.90;;;;;;5048880;28;20577;-48
2023/12/26 09:54:16;;;;;;;1.80;0.80;;;10.10;99.90;;;;;;5048748;28;20908;-46
2023/12/26 09:56:45;;;;;;;3.87;0.90;;;10.10;99.90;;;;;;5050685;28;21054;-46
2023/12/26 09:59:14;;;;;;;3.03;1.03;;;10.10;99.90;;;;;;5047535;28;20468;-45
2023/12/26 10:01:44;;;;;;;2.03;1.20;;;10.10;99.90;;;;;;5054639;28;20480;-49
2023/12/26 10:04:12;;;;;;;2.90;1.47;;;10.10;99.90;;;;;;5056924;28;20485;-47
2023/12/26 10:06:41;;;;;;;1.93;0.90;;;10.10;99.90;;;;;;5047418;28;20476;-47
2023/12/26 10:09:10;;;;;;;1.67;1.00;;;10.10;99.90;;;;;;5056945;28;20845;-48
2023/12/26 10:11:43;;;;;;;3.20;1.30;;;10.10;99.90;;;;;;5051570;28;20470;-47
2023/12/26 10:14:11;;;;;;;3.33;0.97;;;10.10;99.90;;;;;;5048879;28;20451;-48
2023/12/26 10:16:40;;;;;;;2.33;0.97;;;10.10;99.90;;;;;;5045193;28;20477;-48
2023/12/26 10:19:11;;;;;;;3.63;0.93;;;10.10;99.90;;;;;;5039563;28;20447;-47
2023/12/26 10:21:41;;;;;;;3.87;1.47;;;10.10;99.90;;;;;;5038820;28;20501;-46
2023/12/26 10:24:11;;;;;;;4.47;1.50;;;10.10;99.90;;;;;;5046965;28;20437;-46
2023/12/26 10:26:40;;;;;;;3.27;1.20;;;10.20;99.90;;;;;;5052846;28;20577;-47
2023/12/26 10:29:12;;;;;;;1.30;0.80;;;10.20;99.90;;;;;;5048040;28;20840;-50
2023/12/26 10:31:41;;;;;;;1.97;1.20;;;10.20;99.90;;;;;;5053733;28;20478;-50
2023/12/26 10:34:17;;;;;;;3.10;1.00;;;10.20;99.90;;;;;;5043681;28;20436;-48
2023/12/26 10:36:46;;;;;;;2.70;1.43;;;10.20;99.90;;;;;;5035407;28;20506;-48
2023/12/26 10:39:17;;;;;;;2.70;1.17;;;10.20;99.90;;;;;;5059038;28;20455;-48
2023/12/26 10:41:47;;;;;;;3.03;1.40;;;10.10;99.90;;;;;;5058313;28;20470;-48
2023/12/26 10:44:17;;;;;;;3.43;1.30;;;10.20;99.90;;;;;;5054073;28;20441;-47
2023/12/26 10:46:47;;;;;;;3.70;1.03;;;10.20;99.90;;;;;;5060146;28;20468;-46
2023/12/26 10:49:22;;;;;;;4.13;1.43;;;10.20;99.90;;;;;;5057960;28;20811;-45
2023/12/26 10:51:53;;;;;;;2.33;1.20;;;10.20;99.90;;;;;;5042916;28;20494;-49
2023/12/26 10:54:24;;;;;;;6.60;1.30;;;10.20;99.90;;;;;;5054159;28;20423;-47
2023/12/26 10:56:52;;;;;;;2.00;1.40;;;10.20;99.90;;;;;;5055834;28;20545;-47
2023/12/26 10:59:22;;;;;;;3.27;1.33;;;10.20;99.90;;;;;;5041189;28;20463;-46
2023/12/26 11:01:49;;;;;;;2.97;1.23;;;10.20;99.90;;;;;;5055006;28;20569;-47
2023/12/26 11:04:18;;;;;;;3.20;1.37;;;10.20;99.90;;;;;;5061541;28;20456;-46
2023/12/26 11:06:47;;;;;;;3.00;1.07;;;10.20;99.90;;;;;;5058083;28;20558;-49
2023/12/26 11:09:14;;;;;;;2.10;1.03;;;10.20;99.90;;;;;;5052827;28;20467;-47
2023/12/26 11:11:43;;;;;;;2.03;1.20;;;10.20;99.90;;;;;;5058274;28;20468;-46
2023/12/26 11:14:12;;;;;;;4.63;1.60;;;10.20;99.90;;;;;;5054084;28;20497;-47
2023/12/26 11:16:39;;;;;;;5.73;1.30;;;10.20;99.90;;;;;;5060019;28;20998;-46
2023/12/26 11:19:08;;;;;;;6.63;1.40;;;10.10;99.90;;;;;;5063313;28;20456;-47
2023/12/26 11:21:38;;;;;;;3.30;1.63;;;10.20;99.90;;;;;;5055791;28;20863;-46
2023/12/26 11:24:06;;;;;;;4.50;3.17;;;10.20;99.90;;;;;;5047546;28;20467;-46
2023/12/26 11:26:33;;;;;;;6.50;2.20;;;10.20;99.90;;;;;;5060683;28;20491;-46
2023/12/26 11:29:06;;;;;;;3.80;1.50;;;10.20;99.90;;;;;;5052015;28;20439;-47
2023/12/26 11:31:36;;;;;;;4.03;1.40;;;10.10;99.90;;;;;;5047228;28;20497;-48
2023/12/26 11:34:07;;;;;;;6.10;2.10;;;10.10;99.90;;;;;;5041000;28;20451;-48
2023/12/26 11:36:35;;;;;;;7.07;1.70;;;10.10;99.90;;;;;;5035587;28;20505;-48
2023/12/26 11:39:03;;;;;;;3.40;1.87;;;10.20;99.90;;;;;;5041023;28;20443;-47
2023/12/26 11:41:31;;;;;;;5.50;1.40;;;10.10;99.90;;;;;;5049970;28;21237;-48
2023/12/26 11:43:59;;;;;;;2.33;1.13;;;10.10;99.90;;;;;;5039002;28;20849;-50
2023/12/26 11:46:27;;;;;;;6.57;2.00;;;10.10;99.90;;;;;;5051600;28;20475;-49
2023/12/26 11:48:55;;;;;;;4.63;1.20;;;10.10;99.90;;;;;;5050063;28;20425;-48
2023/12/26 11:51:23;;;;;;;8.20;1.63;;;10.10;99.90;;;;;;5048943;28;20500;-48
2023/12/26 11:53:50;;;;;;;3.93;1.50;;;10.10;99.90;;;;;;5064948;28;20439;-48
2023/12/26 11:56:18;;;;;;;4.30;1.73;;;10.10;99.90;;;;;;5060368;28;20954;-48
2023/12/26 11:58:45;;;;;;;5.30;1.80;;;10.10;99.90;;;;;;5041041;28;20441;-48
2023/12/26 12:01:12;;;;;;;2.57;1.10;;;10.10;99.90;;;;;;5054592;28;20871;-50
2023/12/26 12:03:42;;;;;;;7.43;1.70;;;10.10;99.90;;;;;;5052866;28;21129;-46
2023/12/26 12:06:14;;;;;;;4.83;1.67;;;10.10;99.90;;;;;;5059593;28;20460;-46
2023/12/26 12:09:03;;;;;;;3.93;1.50;;;10.10;99.90;;;;;;5049350;28;20472;-48
2023/12/26 12:11:30;;;;;;;3.73;1.30;;;10.10;99.90;;;;;;5041351;28;20593;-48
2023/12/26 12:13:58;;;;;;;5.47;1.60;;;10.10;99.90;;;;;;5037279;28;20499;-49
2023/12/26 12:16:26;;;;;;;5.37;2.00;;;10.10;99.90;;;;;;5045705;28;20476;-49
2023/12/26 12:18:59;;;;;;;4.80;1.13;;;10.20;99.90;;;;;;5050978;28;20530;-49
2023/12/26 12:21:37;;;;;;;3.30;1.33;;;10.20;99.90;;;;;;5047438;28;20553;-49
2023/12/26 12:24:04;;;;;;;4.50;1.47;;;10.20;99.90;;;;;;5059388;28;20433;-47
2023/12/26 12:27:08;;;;;;;3.00;1.60;;;10.20;99.90;;;;;;5049091;28;20472;-48
2023/12/26 12:29:58;;;;;;;4.83;1.70;;;10.20;99.90;;;;;;5042646;28;20590;-48
2023/12/26 12:32:36;;;;;;;6.50;2.13;;;10.20;99.90;;;;;;5046818;28;20782;-47
2023/12/26 12:35:13;;;;;;;2.90;1.50;;;10.20;99.90;;;;;;5055553;28;20437;-50
2023/12/26 12:37:41;;;;;;;3.93;1.43;;;10.20;99.90;;;;;;5050620;28;20485;-49
2023/12/26 12:40:12;;;;;;;3.30;1.57;;;10.20;99.90;;;;;;5041902;28;20554;-46
2023/12/26 12:42:39;;;;;;;9.50;1.57;;;10.20;99.90;;;;;;5041375;28;20539;-50
2023/12/26 12:45:08;;;;;;;5.20;2.33;;;10.30;99.90;;;;;;5046049;28;20445;-46
2023/12/26 12:47:37;;;;;;;5.40;1.83;;;10.40;99.90;;;;;;5037244;28;20476;-49
2023/12/26 12:50:04;;;;;;;6.43;1.60;;;10.40;99.90;;;;;;5047449;28;20464;-48
2023/12/26 12:52:34;;;;;;;7.67;1.60;;;10.40;99.90;;;;;;5035401;28;21003;-48
2023/12/26 12:55:02;;;;;;;5.67;2.27;;;10.40;99.90;;;;;;5047669;28;20469;-47
2023/12/26 12:57:29;;;;;;;8.07;1.63;;;10.40;99.90;;;;;;5043430;28;20461;-51